Houston, Texas
Traffic Map
Current Weather Conditions
Houston, Texas
Broken Clouds
Broken Clouds
86°
Feels Like: 97°
Wind Chill: 86° Ceiling: 25000
Heat Index: 97° Visibility: 10mi
Dew Point: 77° Wind: 5mph
Humidity: 74% Direction: 140° (SE)
Pressure: 30.08in Gusts: 0mph
Raw Report DataKIAH 251453Z 14004KT 10SM FEW020 BKN250 30/25 A3008 RMK AO2 SLP186 T03000250 51007
Traffic Incident Summary
Active as of:
Severity:
Category:
InformationThere was an issue retrieving the traffic information for this location. Please try a different location or try again shortly.
Advertisements
Track Severe Weather on mobile